Time;durP1;ratioP1;P1;durP2;ratioP2;P2;SDS_P1;SDS_P2;PMS_P1;PMS_P2;Temp;Humidity;BMP_temperature;BMP_pressure;BME280_temperature;BME280_humidity;BME280_pressure;Samples;Min_cycle;Max_cycle;Signal;HPM_P1;HPM_P2
2022/01/26 00:00:41;;;;;;;118.47;39.25;;;4.80;99.90;;;;;;5055017;28;20532;-54
2022/01/26 00:07:52;;;;;;;114.63;40.50;;;4.70;99.90;;;;;;5048905;28;20437;-48
2022/01/26 00:10:18;;;;;;;135.63;43.90;;;4.70;99.90;;;;;;5055109;28;20021;-52
2022/01/26 00:12:44;;;;;;;128.23;41.00;;;4.80;99.90;;;;;;5053625;28;20128;-50
2022/01/26 00:15:12;;;;;;;127.28;44.65;;;4.80;99.90;;;;;;5055155;28;20025;-48
2022/01/26 00:17:38;;;;;;;113.00;42.33;;;4.80;99.90;;;;;;5054923;28;20029;-49
2022/01/26 00:25:22;;;;;;;108.28;38.28;;;4.90;99.90;;;;;;5055338;28;20037;-54
2022/01/26 00:28:07;;;;;;;113.95;40.90;;;5.00;99.90;;;;;;5055335;28;20120;-54
2022/01/26 00:38:40;;;;;;;115.90;39.08;;;4.90;99.90;;;;;;5054664;28;20043;-53
2022/01/26 00:41:15;;;;;;;114.90;39.13;;;4.90;99.90;;;;;;5036918;28;20390;-51
2022/01/26 00:43:46;;;;;;;106.72;37.50;;;4.80;99.90;;;;;;5055003;28;20024;-54
2022/01/26 00:46:13;;;;;;;108.40;36.97;;;4.90;99.90;;;;;;5054846;28;20021;-53
2022/01/26 00:48:40;;;;;;;110.78;37.00;;;4.90;99.90;;;;;;5054864;28;20021;-53
2022/01/26 00:51:07;;;;;;;107.95;39.60;;;4.90;99.90;;;;;;5054775;28;20021;-51
2022/01/26 00:53:43;;;;;;;93.45;35.58;;;4.90;99.90;;;;;;5054730;28;20092;-50
2022/01/26 00:56:08;;;;;;;98.43;35.30;;;4.90;99.90;;;;;;5054742;28;20108;-52
2022/01/26 00:58:34;;;;;;;100.90;34.63;;;4.90;99.90;;;;;;5054667;28;20108;-54
2022/01/26 01:01:02;;;;;;;97.25;34.35;;;4.90;99.90;;;;;;5054291;28;20481;-51
2022/01/26 01:03:30;;;;;;;101.63;34.65;;;4.80;99.90;;;;;;5054131;28;20134;-54
2022/01/26 01:06:01;;;;;;;91.10;33.60;;;4.80;99.90;;;;;;5054518;28;20436;-48
2022/01/26 01:08:27;;;;;;;;;;;4.80;99.90;;;;;;5054775;28;20029;-48
2022/01/26 01:10:55;;;;;;;91.93;33.70;;;4.70;99.90;;;;;;5054105;28;20361;-49
2022/01/26 01:13:30;;;;;;;103.22;34.30;;;4.70;99.90;;;;;;5036557;28;20025;-50
2022/01/26 01:15:55;;;;;;;86.40;31.83;;;4.80;99.90;;;;;;5054252;28;20492;-50
2022/01/26 01:18:28;;;;;;;95.85;33.50;;;4.80;99.90;;;;;;5053910;28;20022;-51
2022/01/26 01:21:19;;;;;;;91.07;32.28;;;4.90;99.90;;;;;;5054013;28;20036;-50
2022/01/26 01:29:28;;;;;;;81.15;28.95;;;4.90;99.90;;;;;;5054020;28;20029;-49
2022/01/26 01:31:57;;;;;;;80.05;29.60;;;4.90;99.90;;;;;;5053590;28;20422;-48
2022/01/26 01:34:27;;;;;;;82.03;28.73;;;4.90;99.90;;;;;;5053739;28;20043;-50
2022/01/26 01:36:54;;;;;;;74.32;27.92;;;4.80;99.90;;;;;;5053458;28;20040;-49
2022/01/26 01:39:21;;;;;;;80.50;29.60;;;4.90;99.90;;;;;;5053639;28;20040;-48
2022/01/26 01:41:49;;;;;;;81.28;29.27;;;4.80;99.90;;;;;;5053130;28;20478;-51
2022/01/26 01:44:15;;;;;;;83.70;28.08;;;4.80;99.90;;;;;;5053406;28;20108;-50
2022/01/26 01:46:42;;;;;;;82.35;29.52;;;4.80;99.90;;;;;;5053654;28;20098;-49
2022/01/26 01:49:09;;;;;;;75.35;28.38;;;4.80;99.90;;;;;;5053301;28;20500;-52
2022/01/26 01:51:39;;;;;;;79.45;27.90;;;4.90;99.90;;;;;;5053415;28;20451;-48
2022/01/26 01:54:11;;;;;;;73.05;27.77;;;4.80;99.90;;;;;;5053499;28;20017;-48
2022/01/26 01:56:39;;;;;;;73.10;26.98;;;4.80;99.90;;;;;;5053543;28;20021;-50
2022/01/26 01:59:04;;;;;;;86.68;28.73;;;4.80;99.90;;;;;;5053565;28;20371;-50
2022/01/26 02:01:30;;;;;;;79.90;27.33;;;4.70;99.90;;;;;;5053265;28;20092;-49
2022/01/26 02:03:55;;;;;;;82.85;29.65;;;4.70;99.90;;;;;;5053174;28;20036;-51
2022/01/26 02:06:22;;;;;;;71.03;26.45;;;4.70;99.90;;;;;;5053086;28;20028;-51
2022/01/26 02:08:48;;;;;;;72.53;27.83;;;4.70;99.90;;;;;;5035676;28;20035;-49
2022/01/26 02:11:14;;;;;;;72.07;28.42;;;4.70;99.90;;;;;;5053254;28;20444;-52
2022/01/26 02:13:56;;;;;;;75.63;27.20;;;4.70;99.90;;;;;;5052719;28;20110;-54
2022/01/26 02:16:32;;;;;;;86.38;29.05;;;4.60;99.90;;;;;;5052983;28;20053;-49
2022/01/26 02:19:28;;;;;;;78.18;28.27;;;4.60;99.90;;;;;;5053371;28;20114;-54
2022/01/26 02:49:17;;;;;;;83.53;27.50;;;4.60;99.90;;;;;;5052685;28;20028;-49
2022/01/26 02:52:26;;;;;;;77.55;26.83;;;4.50;99.90;;;;;;5034246;28;20029;-69
2022/01/26 02:55:20;;;;;;;74.30;27.63;;;4.50;99.90;;;;;;5035753;28;20045;-69
2022/01/26 03:05:27;;;;;;;76.97;27.48;;;4.40;99.90;;;;;;5039064;28;20036;-69
2022/01/26 03:08:00;;;;;;;78.53;27.52;;;4.40;99.90;;;;;;5038454;28;20068;-69
2022/01/26 03:13:07;;;;;;;78.07;27.15;;;4.40;99.90;;;;;;5038643;28;20025;-69
2022/01/26 03:15:45;;;;;;;79.07;25.17;;;4.40;99.90;;;;;;5046757;28;20470;-69
2022/01/26 03:20:58;;;;;;;81.93;26.33;;;4.50;99.90;;;;;;5038394;28;20121;-69
2022/01/26 03:31:53;;;;;;;64.63;23.00;;;4.60;99.90;;;;;;5038156;28;20026;-68
2022/01/26 03:34:14;;;;;;;63.50;23.65;;;4.60;99.90;;;;;;5037541;28;20056;-68
2022/01/26 03:36:50;;;;;;;60.92;23.02;;;4.50;99.90;;;;;;5037377;28;20036;-68
2022/01/26 03:39:19;;;;;;;64.07;22.02;;;4.50;99.90;;;;;;5037720;28;20021;-68
2022/01/26 03:44:11;;;;;;;55.95;22.05;;;4.40;99.90;;;;;;5037916;28;20055;-68
2022/01/26 03:46:37;;;;;;;55.13;19.13;;;4.50;99.90;;;;;;5038080;28;20029;-68
2022/01/26 03:49:04;;;;;;;52.95;19.50;;;4.50;99.90;;;;;;5037639;28;20529;-68
2022/01/26 03:51:30;;;;;;;55.28;20.45;;;4.50;99.90;;;;;;5037374;28;20089;-69
2022/01/26 03:53:56;;;;;;;52.33;21.13;;;4.60;99.90;;;;;;5037612;28;20025;-68
2022/01/26 03:56:21;;;;;;;54.40;19.70;;;4.60;99.90;;;;;;5037185;28;20394;-69
2022/01/26 03:58:47;;;;;;;48.05;18.55;;;4.60;99.90;;;;;;5037805;28;20026;-69
2022/01/26 04:01:12;;;;;;;55.05;20.23;;;4.60;99.90;;;;;;5037538;28;20033;-69
2022/01/26 04:03:38;;;;;;;48.25;19.50;;;4.60;99.90;;;;;;5035573;28;20457;-69
2022/01/26 04:06:04;;;;;;;50.88;18.70;;;4.60;99.90;;;;;;5036971;28;20406;-69
2022/01/26 04:08:32;;;;;;;48.72;18.30;;;4.50;99.90;;;;;;5037290;28;20057;-69
2022/01/26 04:11:15;;;;;;;47.05;16.70;;;4.50;99.90;;;;;;5037065;28;20505;-69
2022/01/26 04:13:41;;;;;;;48.60;17.52;;;4.50;99.90;;;;;;5035681;28;20021;-69
2022/01/26 04:16:08;;;;;;;46.35;16.83;;;4.50;99.90;;;;;;5037278;28;20032;-69
2022/01/26 04:18:37;;;;;;;46.58;15.85;;;4.50;99.90;;;;;;5037321;28;20029;-69
2022/01/26 04:21:23;;;;;;;36.25;14.82;;;4.60;99.90;;;;;;5037152;28;20024;-69
2022/01/26 04:24:03;;;;;;;42.70;15.57;;;4.50;99.90;;;;;;5037300;28;20116;-69
2022/01/26 04:26:39;;;;;;;45.10;15.23;;;4.50;99.90;;;;;;5036788;28;20037;-69
2022/01/26 04:29:10;;;;;;;39.80;16.50;;;4.50;99.90;;;;;;5035787;28;20280;-69
2022/01/26 04:31:36;;;;;;;43.05;15.57;;;4.50;99.90;;;;;;5037819;28;20018;-69
2022/01/26 04:34:02;;;;;;;46.00;17.23;;;4.60;99.90;;;;;;5037885;28;20045;-69
2022/01/26 04:36:36;;;;;;;49.55;17.85;;;4.50;99.90;;;;;;5036680;28;20494;-68
2022/01/26 04:39:07;;;;;;;46.58;16.90;;;4.50;99.90;;;;;;5045458;28;20483;-70
2022/01/26 04:41:50;;;;;;;46.72;16.58;;;4.50;99.90;;;;;;5035563;28;20061;-69
2022/01/26 04:44:23;;;;;;;41.95;17.35;;;4.40;99.90;;;;;;5037825;28;20356;-69
2022/01/26 04:46:49;;;;;;;48.78;16.95;;;4.40;99.90;;;;;;5037350;28;20079;-69
2022/01/26 04:49:15;;;;;;;43.60;17.10;;;4.40;99.90;;;;;;5036389;28;20035;-69
2022/01/26 04:51:40;;;;;;;46.67;17.13;;;4.40;99.90;;;;;;5036266;28;20021;-69
2022/01/26 04:54:06;;;;;;;49.72;18.65;;;4.40;99.90;;;;;;5037311;28;20022;-69
2022/01/26 04:56:31;;;;;;;45.65;17.70;;;4.30;99.90;;;;;;5038498;28;20560;-69
2022/01/26 04:58:57;;;;;;;45.80;18.02;;;4.40;99.90;;;;;;5037995;28;20033;-69
2022/01/26 05:01:22;;;;;;;50.47;17.65;;;4.40;99.90;;;;;;5036413;28;20030;-69
2022/01/26 05:03:48;;;;;;;45.45;17.90;;;4.40;99.90;;;;;;5037068;28;20049;-69
2022/01/26 05:06:14;;;;;;;45.67;18.90;;;4.50;99.90;;;;;;5036211;28;20096;-69
2022/01/26 05:08:39;;;;;;;51.70;19.13;;;4.50;99.90;;;;;;5036536;28;20108;-69
2022/01/26 05:11:07;;;;;;;43.70;16.88;;;4.50;99.90;;;;;;5036727;28;20025;-69
2022/01/26 05:13:32;;;;;;;54.47;18.33;;;4.50;99.90;;;;;;5035934;28;20014;-69
2022/01/26 05:15:58;;;;;;;51.65;17.23;;;4.40;99.90;;;;;;5035616;28;20426;-69
2022/01/26 05:18:24;;;;;;;50.72;18.45;;;4.40;99.90;;;;;;5035414;28;20430;-69
2022/01/26 05:20:50;;;;;;;48.35;18.13;;;4.40;99.90;;;;;;5035913;28;20030;-69
2022/01/26 05:23:16;;;;;;;48.67;17.25;;;4.40;99.90;;;;;;5034984;28;20079;-69
2022/01/26 05:25:42;;;;;;;49.15;16.83;;;4.30;99.90;;;;;;5035510;28;20410;-69
2022/01/26 05:28:07;;;;;;;52.03;19.23;;;4.30;99.90;;;;;;5035676;28;20609;-68
2022/01/26 05:30:33;;;;;;;48.47;18.00;;;4.30;99.90;;;;;;5035351;28;20033;-69
2022/01/26 05:32:58;;;;;;;50.28;17.80;;;4.20;99.90;;;;;;5035362;28;20387;-69
2022/01/26 05:35:24;;;;;;;49.42;17.70;;;4.30;99.90;;;;;;5035204;28;20379;-69
2022/01/26 05:37:49;;;;;;;43.60;16.75;;;4.30;99.90;;;;;;5035256;28;20517;-69
2022/01/26 05:40:15;;;;;;;50.75;17.92;;;4.30;99.90;;;;;;5034181;28;20025;-69
2022/01/26 05:42:41;;;;;;;51.28;18.10;;;4.20;99.90;;;;;;5035338;28;20025;-69
2022/01/26 05:45:17;;;;;;;52.50;17.65;;;4.20;99.90;;;;;;5035228;28;20037;-69
2022/01/26 05:47:43;;;;;;;43.78;17.20;;;4.20;99.90;;;;;;5033664;28;20029;-69
2022/01/26 05:50:09;;;;;;;47.83;18.00;;;4.20;99.90;;;;;;5035482;28;20506;-69
2022/01/26 05:52:34;;;;;;;49.15;19.08;;;4.20;99.90;;;;;;5035465;28;20078;-68
2022/01/26 05:55:00;;;;;;;49.60;17.65;;;4.20;99.90;;;;;;5035083;28;20060;-68
2022/01/26 05:57:25;;;;;;;48.30;18.20;;;4.20;99.90;;;;;;5035538;28;20159;-68
2022/01/26 05:59:53;;;;;;;48.00;19.38;;;4.20;99.90;;;;;;5037086;28;20068;-69
2022/01/26 06:02:19;;;;;;;54.25;19.77;;;4.20;99.90;;;;;;5034929;28;20075;-69
2022/01/26 06:04:45;;;;;;;50.83;16.67;;;4.20;99.90;;;;;;5034743;28;20108;-69
2022/01/26 06:07:11;;;;;;;57.45;20.35;;;4.10;99.90;;;;;;5035224;28;20032;-69
2022/01/26 06:09:36;;;;;;;47.60;17.63;;;4.20;99.90;;;;;;5036783;28;20120;-69
2022/01/26 06:12:02;;;;;;;53.97;18.95;;;4.20;99.90;;;;;;5035720;28;20025;-69
2022/01/26 06:14:28;;;;;;;56.50;18.08;;;4.20;99.90;;;;;;5034902;28;20517;-69
2022/01/26 06:16:53;;;;;;;49.83;17.58;;;4.20;99.90;;;;;;5035832;28;20028;-69
2022/01/26 06:19:19;;;;;;;50.95;18.55;;;4.20;99.90;;;;;;5050271;28;20032;-69
2022/01/26 06:21:44;;;;;;;54.67;16.98;;;4.10;99.90;;;;;;5034563;28;20064;-69
2022/01/26 06:24:10;;;;;;;56.70;18.52;;;4.10;99.90;;;;;;5035299;28;20033;-69
2022/01/26 06:26:36;;;;;;;56.25;18.92;;;4.10;99.90;;;;;;5034499;28;20049;-69
2022/01/26 06:29:02;;;;;;;61.72;20.38;;;4.00;99.90;;;;;;5032517;28;20033;-69
2022/01/26 06:31:28;;;;;;;55.38;18.40;;;4.00;99.90;;;;;;5034416;28;20579;-69
2022/01/26 06:33:55;;;;;;;51.20;18.80;;;4.00;99.90;;;;;;5035058;28;20014;-69
2022/01/26 06:36:21;;;;;;;53.50;19.42;;;4.00;99.90;;;;;;5033240;28;20025;-69
2022/01/26 06:38:48;;;;;;;60.65;20.52;;;4.00;99.90;;;;;;5049825;28;20033;-69
2022/01/26 06:41:22;;;;;;;55.17;20.00;;;3.90;99.90;;;;;;5035281;28;20048;-69
2022/01/26 06:43:52;;;;;;;66.95;20.88;;;4.00;99.90;;;;;;5034791;28;20032;-69
2022/01/26 06:46:24;;;;;;;61.70;18.63;;;4.00;99.90;;;;;;5034776;28;20021;-69
2022/01/26 06:49:28;;;;;;;55.55;18.50;;;4.00;99.90;;;;;;5035047;28;20022;-69
2022/01/26 06:51:41;;;;;;;;;;;3.90;99.90;;;;;;5035158;28;20040;-69
2022/01/26 06:54:07;;;;;;;57.33;18.73;;;3.90;99.90;;;;;;5034938;28;19905;-69
2022/01/26 06:56:32;;;;;;;56.75;18.65;;;3.80;99.90;;;;;;5034294;28;20041;-69
2022/01/26 06:58:58;;;;;;;54.22;19.38;;;3.80;99.90;;;;;;5033010;28;20029;-69
2022/01/26 07:01:23;;;;;;;57.50;19.55;;;3.80;99.90;;;;;;5034508;28;20034;-69
2022/01/26 07:03:49;;;;;;;62.85;21.05;;;3.80;99.90;;;;;;5034512;28;20487;-69
2022/01/26 07:06:14;;;;;;;66.35;20.83;;;3.80;99.90;;;;;;5034401;28;20036;-69
2022/01/26 07:08:40;;;;;;;55.38;20.05;;;3.80;99.90;;;;;;5032762;28;20033;-68
2022/01/26 07:11:06;;;;;;;63.63;21.20;;;3.80;99.90;;;;;;5034721;28;20196;-69
2022/01/26 07:13:31;;;;;;;62.17;20.48;;;3.70;99.90;;;;;;5034829;28;20097;-69
2022/01/26 07:21:28;;;;;;;68.10;22.20;;;3.70;99.90;;;;;;5036726;28;20556;-69
2022/01/26 07:23:58;;;;;;;62.95;22.98;;;3.70;99.90;;;;;;5035152;28;20478;-69
2022/01/26 07:26:27;;;;;;;65.32;20.80;;;3.70;99.90;;;;;;5034487;28;20041;-69
2022/01/26 07:28:53;;;;;;;74.38;22.67;;;3.70;99.90;;;;;;5034575;28;20025;-68
2022/01/26 07:31:19;;;;;;;71.95;22.58;;;3.70;99.90;;;;;;5034273;28;20049;-68
2022/01/26 07:33:45;;;;;;;67.55;23.77;;;3.70;99.90;;;;;;5034837;28;20036;-69
2022/01/26 07:36:10;;;;;;;65.93;21.95;;;3.70;99.90;;;;;;5034358;28;20176;-69
2022/01/26 07:38:37;;;;;;;62.78;21.77;;;3.70;99.90;;;;;;5034355;28;20017;-69
2022/01/26 07:41:02;;;;;;;69.07;23.63;;;3.70;99.90;;;;;;5033417;28;20021;-69
2022/01/26 07:43:28;;;;;;;76.07;24.40;;;3.70;99.90;;;;;;5039852;28;20128;-68
2022/01/26 07:45:54;;;;;;;78.45;24.63;;;3.60;99.90;;;;;;5039881;28;20025;-68
2022/01/26 07:48:19;;;;;;;71.13;24.02;;;3.50;99.90;;;;;;5038070;28;20108;-68
2022/01/26 07:50:45;;;;;;;86.82;27.73;;;3.50;99.90;;;;;;5042199;28;20025;-68
2022/01/26 07:53:15;;;;;;;80.40;26.50;;;3.50;99.90;;;;;;5037669;28;20028;-69
2022/01/26 07:55:41;;;;;;;78.32;26.50;;;3.50;99.90;;;;;;5038349;28;20020;-69
2022/01/26 07:58:08;;;;;;;89.05;28.20;;;3.50;99.90;;;;;;5038562;28;20391;-68
2022/01/26 08:00:34;;;;;;;86.40;28.42;;;3.50;99.90;;;;;;5037419;28;20021;-68
2022/01/26 08:02:59;;;;;;;88.55;27.85;;;3.40;99.90;;;;;;5038721;28;20056;-69
2022/01/26 08:05:25;;;;;;;98.38;29.65;;;3.30;99.90;;;;;;5041568;28;20045;-68
2022/01/26 08:07:51;;;;;;;94.82;30.40;;;3.30;99.90;;;;;;5041365;28;20052;-69
2022/01/26 08:10:16;;;;;;;100.05;29.58;;;3.40;99.90;;;;;;5037179;28;20446;-68
2022/01/26 08:12:42;;;;;;;97.50;29.40;;;3.40;99.90;;;;;;5036000;28;20021;-68
2022/01/26 08:15:08;;;;;;;108.88;31.20;;;3.40;99.90;;;;;;5039684;28;20053;-68
2022/01/26 08:17:35;;;;;;;106.95;31.23;;;3.40;99.90;;;;;;5040465;28;20112;-69
2022/01/26 08:20:03;;;;;;;96.32;30.80;;;3.40;99.90;;;;;;5039924;28;20029;-69
2022/01/26 08:22:29;;;;;;;91.43;29.13;;;3.40;99.90;;;;;;5036521;28;20025;-69
2022/01/26 08:24:58;;;;;;;100.57;29.23;;;3.40;99.90;;;;;;5036091;28;20557;-68
2022/01/26 08:27:26;;;;;;;102.22;31.05;;;3.40;99.90;;;;;;5036312;28;20478;-69
2022/01/26 08:29:58;;;;;;;95.28;29.45;;;3.40;99.90;;;;;;5038674;28;20033;-69
2022/01/26 08:32:24;;;;;;;98.00;31.67;;;3.40;99.90;;;;;;5036002;28;20021;-69
2022/01/26 08:34:49;;;;;;;92.65;29.50;;;3.40;99.90;;;;;;5037783;28;20030;-69
2022/01/26 08:37:15;;;;;;;96.38;29.42;;;3.40;99.90;;;;;;5035622;28;20033;-68
2022/01/26 08:39:41;;;;;;;96.93;30.17;;;3.40;99.90;;;;;;5036002;28;20036;-69
2022/01/26 08:42:07;;;;;;;95.80;31.70;;;3.50;99.90;;;;;;5037054;28;20478;-69
2022/01/26 08:44:35;;;;;;;104.72;31.23;;;3.50;99.90;;;;;;5029019;28;20025;-69
2022/01/26 08:47:01;;;;;;;95.82;29.92;;;3.50;99.90;;;;;;5035247;28;20036;-69
2022/01/26 08:49:27;;;;;;;98.40;30.48;;;3.50;99.90;;;;;;5026443;28;20021;-69
2022/01/26 08:51:53;;;;;;;98.68;28.50;;;3.50;99.90;;;;;;5022465;28;20041;-69
2022/01/26 08:54:22;;;;;;;93.03;28.05;;;3.50;99.90;;;;;;5024357;28;20056;-69
2022/01/26 08:56:50;;;;;;;92.40;29.85;;;3.50;99.90;;;;;;5024122;28;20018;-69
2022/01/26 08:59:16;;;;;;;92.07;27.85;;;3.50;99.90;;;;;;5023148;28;20026;-69
2022/01/26 09:01:41;;;;;;;85.88;28.38;;;3.50;99.90;;;;;;5024419;28;20026;-69
2022/01/26 09:04:07;;;;;;;87.00;27.10;;;3.50;99.90;;;;;;5024110;28;20021;-68
2022/01/26 09:06:38;;;;;;;93.78;29.15;;;3.40;99.90;;;;;;5022587;28;20037;-69
2022/01/26 09:09:07;;;;;;;94.22;28.00;;;3.40;99.90;;;;;;5023718;28;20035;-69
2022/01/26 09:11:35;;;;;;;85.25;26.98;;;3.50;99.90;;;;;;5032561;28;20086;-68
2022/01/26 09:14:07;;;;;;;93.63;27.75;;;3.40;99.90;;;;;;5036191;28;20352;-68
2022/01/26 09:16:33;;;;;;;95.07;28.38;;;3.50;99.90;;;;;;5034773;28;20075;-69
2022/01/26 09:19:05;;;;;;;89.20;28.08;;;3.40;99.90;;;;;;5034744;28;20101;-68
2022/01/26 09:21:31;;;;;;;90.90;28.23;;;3.40;99.90;;;;;;5050111;28;20387;-68
2022/01/26 09:23:56;;;;;;;90.43;28.50;;;3.50;99.90;;;;;;5034844;28;20025;-68
2022/01/26 09:26:22;;;;;;;94.60;29.50;;;3.60;99.90;;;;;;5028491;28;20031;-68
2022/01/26 09:28:48;;;;;;;95.88;28.80;;;3.60;99.90;;;;;;5025903;28;20030;-69
2022/01/26 09:31:14;;;;;;;91.28;28.88;;;3.60;99.90;;;;;;5016995;28;20025;-69
2022/01/26 09:33:40;;;;;;;92.07;28.13;;;3.70;99.90;;;;;;5030510;28;20018;-69
2022/01/26 09:36:05;;;;;;;93.70;29.10;;;3.70;99.90;;;;;;5034423;28;20029;-69
2022/01/26 09:38:31;;;;;;;98.57;30.52;;;3.80;99.90;;;;;;5034452;28;20025;-69
2022/01/26 09:40:56;;;;;;;89.32;28.88;;;3.70;99.90;;;;;;5034626;28;20057;-69
2022/01/26 09:43:22;;;;;;;87.93;28.77;;;3.70;99.90;;;;;;5034241;28;20098;-70
2022/01/26 09:45:48;;;;;;;101.38;31.95;;;3.70;99.90;;;;;;5034394;28;20429;-69
2022/01/26 09:48:14;;;;;;;100.32;30.60;;;3.70;99.90;;;;;;5034494;28;20025;-69
2022/01/26 09:50:45;;;;;;;94.93;30.67;;;3.60;99.90;;;;;;5033798;28;20471;-69
2022/01/26 09:53:16;;;;;;;99.47;30.08;;;3.70;99.90;;;;;;5034311;28;20049;-69
2022/01/26 09:55:42;;;;;;;103.35;31.48;;;3.60;99.90;;;;;;5034212;28;20108;-69
2022/01/26 09:58:09;;;;;;;102.40;32.50;;;3.60;99.90;;;;;;5034070;28;20022;-69
2022/01/26 10:00:35;;;;;;;100.32;33.42;;;3.70;99.90;;;;;;5036113;28;20038;-69
2022/01/26 10:03:05;;;;;;;104.07;32.60;;;3.70;99.90;;;;;;5069183;22;20504;-70
2022/01/26 10:05:42;;;;;;;109.25;33.40;;;3.70;99.90;;;;;;5044015;28;20025;-70
2022/01/26 10:16:10;;;;;;;100.45;31.13;;;3.70;99.90;;;;;;5018017;28;20068;-71
2022/01/26 10:18:35;;;;;;;101.57;33.55;;;3.70;99.90;;;;;;5023325;28;20021;-70
2022/01/26 10:21:03;;;;;;;102.25;32.35;;;3.70;99.90;;;;;;5021797;28;20429;-70
2022/01/26 10:23:36;;;;;;;112.15;34.15;;;3.70;99.90;;;;;;5004599;28;20025;-71
2022/01/26 10:26:01;;;;;;;109.65;34.28;;;3.70;99.90;;;;;;5025304;28;20025;-70
2022/01/26 10:28:39;;;;;;;120.22;36.28;;;3.70;99.90;;;;;;5013378;28;20056;-70
2022/01/26 10:31:19;;;;;;;112.68;35.03;;;3.70;99.90;;;;;;5012402;28;20137;-70
2022/01/26 10:34:06;;;;;;;116.72;35.47;;;3.70;99.90;;;;;;5013462;28;20022;-69
2022/01/26 10:36:50;;;;;;;117.40;37.53;;;3.70;99.90;;;;;;5016566;28;20026;-70
2022/01/26 10:39:50;;;;;;;114.65;34.80;;;3.70;99.90;;;;;;5023261;28;20054;-70
2022/01/26 10:42:19;;;;;;;112.75;34.47;;;3.70;99.90;;;;;;5024967;28;20029;-70
2022/01/26 10:45:06;;;;;;;112.40;36.00;;;3.70;99.90;;;;;;5021762;28;20489;-71
2022/01/26 10:47:37;;;;;;;116.85;37.67;;;3.70;99.90;;;;;;5018306;28;20036;-71
2022/01/26 10:50:32;;;;;;;117.68;37.83;;;3.70;99.90;;;;;;5016691;28;20057;-71
2022/01/26 10:53:12;;;;;;;116.30;36.38;;;3.70;99.90;;;;;;5005121;28;20117;-71
2022/01/26 10:55:39;;;;;;;118.37;36.23;;;3.80;99.90;;;;;;5016867;28;20029;-71
2022/01/26 10:58:07;;;;;;;118.50;38.25;;;3.80;99.90;;;;;;5016376;28;20018;-71
2022/01/26 11:00:37;;;;;;;118.95;37.15;;;3.80;99.90;;;;;;5015607;28;20025;-71
2022/01/26 11:03:03;;;;;;;129.90;38.33;;;3.80;99.90;;;;;;5015875;28;20048;-71
2022/01/26 11:05:29;;;;;;;119.10;40.65;;;3.80;99.90;;;;;;4998275;28;20038;-71
2022/01/26 11:07:57;;;;;;;127.47;39.67;;;3.70;99.90;;;;;;4998283;28;20022;-71
2022/01/26 11:10:32;;;;;;;125.13;36.85;;;3.80;99.90;;;;;;5015635;28;20029;-71
2022/01/26 11:12:58;;;;;;;112.43;38.45;;;3.80;99.90;;;;;;5021688;28;20022;-71
2022/01/26 11:15:23;;;;;;;127.20;39.42;;;3.80;99.90;;;;;;5016195;28;20022;-70
2022/01/26 11:17:49;;;;;;;117.82;37.85;;;3.90;99.90;;;;;;5019379;28;20030;-70
2022/01/26 11:20:17;;;;;;;127.22;39.53;;;3.90;99.90;;;;;;5019762;28;20033;-71
2022/01/26 11:22:51;;;;;;;122.20;41.00;;;3.90;99.90;;;;;;5001436;28;20033;-71
2022/01/26 11:25:17;;;;;;;123.28;39.22;;;3.90;99.90;;;;;;5020098;28;20034;-70
2022/01/26 11:27:43;;;;;;;126.25;40.92;;;3.90;99.90;;;;;;5019056;28;20033;-71
2022/01/26 11:30:30;;;;;;;115.93;38.35;;;3.90;99.90;;;;;;5018618;28;20030;-71
2022/01/26 11:33:02;;;;;;;117.55;38.60;;;4.00;99.90;;;;;;5019691;28;20022;-71
2022/01/26 11:35:35;;;;;;;128.10;39.45;;;3.90;99.90;;;;;;5018486;28;20044;-71
2022/01/26 11:42:11;;;;;;;126.10;37.35;;;4.00;99.90;;;;;;5019242;28;20060;-71
2022/01/26 11:47:18;;;;;;;126.30;36.90;;;3.90;99.90;;;;;;5021913;28;20430;-70
2022/01/26 11:49:44;;;;;;;134.93;41.55;;;3.90;99.90;;;;;;5025777;28;20419;-70
2022/01/26 11:52:29;;;;;;;128.50;38.50;;;3.90;99.90;;;;;;5022704;28;20134;-70
2022/01/26 11:54:58;;;;;;;139.45;38.50;;;3.90;99.90;;;;;;5023656;28;20040;-70
2022/01/26 11:58:06;;;;;;;133.23;40.45;;;3.90;99.90;;;;;;5020475;28;20022;-70
2022/01/26 12:00:42;;;;;;;123.97;37.65;;;4.00;99.90;;;;;;4999320;28;20038;-70
2022/01/26 12:03:23;;;;;;;127.18;39.83;;;4.00;99.90;;;;;;5018098;28;20398;-70
2022/01/26 12:05:51;;;;;;;121.43;37.63;;;4.00;99.90;;;;;;5018024;28;20022;-70
2022/01/26 12:08:27;;;;;;;125.63;38.45;;;4.00;99.90;;;;;;5016728;28;20032;-70
2022/01/26 12:10:53;;;;;;;130.88;38.33;;;4.00;99.90;;;;;;5018953;28;20442;-70
2022/01/26 12:13:23;;;;;;;133.80;39.72;;;4.00;99.90;;;;;;5019233;28;20018;-70
2022/01/26 12:15:55;;;;;;;133.43;39.57;;;4.00;99.90;;;;;;5018990;28;20040;-70
2022/01/26 12:18:32;;;;;;;121.85;39.10;;;4.00;99.90;;;;;;5019077;28;20653;-70
2022/01/26 12:43:05;;;;;;;129.55;41.38;;;4.10;99.90;;;;;;5013740;28;20571;-70
2022/01/26 12:45:28;;;;;;;126.28;38.63;;;4.10;99.90;;;;;;5017295;28;20041;-70
2022/01/26 12:47:56;;;;;;;134.07;40.05;;;4.10;99.90;;;;;;5018361;28;20034;-70
2022/01/26 12:50:23;;;;;;;127.95;41.90;;;4.10;99.90;;;;;;5018194;28;20036;-70
2022/01/26 12:52:52;;;;;;;133.38;43.40;;;4.10;99.90;;;;;;5016876;28;20045;-70
2022/01/26 12:55:30;;;;;;;135.40;41.88;;;4.20;99.90;;;;;;5032508;28;20053;-70
2022/01/26 12:57:56;;;;;;;142.60;43.13;;;4.10;99.90;;;;;;5003116;28;20025;-70
2022/01/26 13:00:25;;;;;;;143.65;43.50;;;4.10;99.90;;;;;;5006095;28;20076;-70
2022/01/26 13:02:52;;;;;;;129.65;40.95;;;4.10;99.90;;;;;;5036716;28;20044;-70
2022/01/26 13:05:26;;;;;;;138.18;43.55;;;4.10;99.90;;;;;;5037282;28;20033;-70
2022/01/26 13:08:03;;;;;;;145.52;43.88;;;4.10;99.90;;;;;;5023106;28;20434;-70
2022/01/26 13:10:30;;;;;;;148.13;44.72;;;4.00;99.90;;;;;;5033883;28;20022;-70
2022/01/26 13:13:09;;;;;;;142.25;43.35;;;4.10;99.90;;;;;;5036296;28;20071;-71
2022/01/26 13:15:45;;;;;;;144.73;43.88;;;4.10;99.90;;;;;;5035922;28;20045;-71
2022/01/26 13:19:00;;;;;;;139.38;43.45;;;4.10;99.90;;;;;;5036384;28;20093;-72
2022/01/26 13:24:31;;;;;;;143.10;43.97;;;4.20;99.90;;;;;;5034178;28;20480;-71
2022/01/26 13:27:22;;;;;;;137.07;42.67;;;4.20;99.90;;;;;;5006224;28;20026;-71
2022/01/26 13:35:35;;;;;;;133.73;43.00;;;4.30;99.90;;;;;;5015631;28;20037;-71
2022/01/26 13:38:22;;;;;;;154.80;44.40;;;4.40;99.90;;;;;;5015677;28;20036;-71
2022/01/26 13:40:57;;;;;;;140.93;44.17;;;4.40;99.90;;;;;;5016432;28;20030;-70
2022/01/26 13:54:13;;;;;;;137.30;42.80;;;4.40;99.90;;;;;;4993725;28;20064;-71
2022/01/26 13:56:54;;;;;;;144.15;45.47;;;4.40;99.90;;;;;;5001665;28;20033;-71
2022/01/26 14:01:48;;;;;;;128.95;43.35;;;4.40;99.90;;;;;;5023519;28;20030;-71
2022/01/26 14:04:15;;;;;;;145.15;47.35;;;4.50;99.90;;;;;;5019627;28;20036;-71
2022/01/26 14:06:42;;;;;;;149.68;46.60;;;4.50;99.90;;;;;;5020865;28;20471;-71
2022/01/26 14:09:07;;;;;;;136.50;42.72;;;4.60;99.90;;;;;;5010493;28;20514;-71
2022/01/26 14:11:33;;;;;;;140.95;46.60;;;4.60;99.90;;;;;;5022829;28;20025;-71
2022/01/26 14:14:00;;;;;;;129.57;42.00;;;4.60;99.90;;;;;;5021246;28;20097;-71
2022/01/26 14:16:28;;;;;;;139.82;43.55;;;4.60;99.90;;;;;;5020558;28;20022;-71
2022/01/26 14:21:43;;;;;;;124.72;42.97;;;4.60;99.90;;;;;;5015774;28;20379;-71
2022/01/26 14:26:40;;;;;;;145.35;46.13;;;4.70;99.90;;;;;;5015948;28;20442;-71
2022/01/26 14:29:19;;;;;;;132.77;46.13;;;4.70;99.90;;;;;;5017136;28;20437;-71
2022/01/26 14:40:05;;;;;;;131.80;44.08;;;4.80;99.90;;;;;;5016159;28;20052;-71
2022/01/26 14:50:58;;;;;;;127.93;41.08;;;4.70;99.90;;;;;;5014730;28;20025;-70
2022/01/26 14:55:58;;;;;;;137.15;44.28;;;4.80;99.90;;;;;;5016055;28;20037;-70
2022/01/26 15:32:35;;;;;;;122.35;41.28;;;4.90;99.90;;;;;;5016599;28;20538;-70
2022/01/26 15:34:08;;;;;;;117.53;39.08;;;4.90;99.90;;;;;;5005393;28;20076;-71
2022/01/26 15:42:14;;;;;;;112.32;36.90;;;4.90;99.90;;;;;;5015030;28;19927;-71
2022/01/26 15:50:36;;;;;;;108.07;36.53;;;4.90;99.90;;;;;;5024615;28;20099;-71
2022/01/26 15:58:51;;;;;;;104.85;36.50;;;4.90;99.90;;;;;;5017413;28;20084;-71
2022/01/26 16:26:23;;;;;;;103.65;37.13;;;4.90;99.90;;;;;;5056543;28;20366;-70
2022/01/26 16:37:41;;;;;;;116.97;39.97;;;5.00;99.90;;;;;;5056029;28;20029;-71
2022/01/26 17:48:05;;;;;;;114.32;37.72;;;5.00;99.90;;;;;;4993223;28;20049;-71
2022/01/26 18:38:53;;;;;;;101.35;38.53;;;5.10;99.90;;;;;;5054669;28;20405;-69
2022/01/26 18:49:18;;;;;;;119.25;38.80;;;5.10;99.90;;;;;;5054513;28;20039;-69
2022/01/26 18:51:52;;;;;;;105.75;37.08;;;5.10;99.90;;;;;;5056139;28;20047;-70
2022/01/26 18:54:19;;;;;;;115.78;37.53;;;5.10;99.90;;;;;;5057559;28;20021;-69
2022/01/26 18:56:46;;;;;;;109.07;39.00;;;5.10;99.90;;;;;;5056199;28;20087;-69